createdAt,value
2018-12-14T00:00:53.185Z,66.41
2018-12-14T00:03:22.330Z,65.62
2018-12-14T00:05:52.835Z,65.58
2018-12-14T00:08:23.077Z,65.69
2018-12-14T00:10:52.503Z,64.66
2018-12-14T00:13:22.530Z,64.35
2018-12-14T00:15:52.293Z,65.28
2018-12-14T00:18:23.115Z,65.89
2018-12-14T00:20:53.369Z,66.56
2018-12-14T00:23:23.767Z,67.41
2018-12-14T00:25:54.585Z,67.60
2018-12-14T00:28:24.833Z,66.43
2018-12-14T00:30:55.420Z,66.31
2018-12-14T00:33:25.992Z,64.64
2018-12-14T00:35:54.520Z,65.13
2018-12-14T00:38:24.250Z,65.44
2018-12-14T00:40:54.477Z,65.09
2018-12-14T00:43:24.343Z,64.69
2018-12-14T00:45:54.328Z,64.45
2018-12-14T00:48:31.003Z,64.74
2018-12-14T00:51:01.054Z,65.29
2018-12-14T00:53:31.768Z,64.98
2018-12-14T00:56:01.165Z,66.00
2018-12-14T00:58:31.073Z,66.02
2018-12-14T01:01:00.108Z,66.72
2018-12-14T01:03:31.514Z,66.45
2018-12-14T01:06:02.373Z,65.48
2018-12-14T01:08:33.619Z,65.87
2018-12-14T01:11:03.553Z,66.43
2018-12-14T01:13:32.693Z,65.29
2018-12-14T01:16:02.602Z,65.27
2018-12-14T01:18:34.395Z,64.48
2018-12-14T01:21:04.616Z,65.09
2018-12-14T01:23:38.169Z,64.87
2018-12-14T01:26:08.015Z,65.10
2018-12-14T01:28:38.850Z,63.94
2018-12-14T01:31:08.023Z,63.60
2018-12-14T01:33:37.254Z,63.97
2018-12-14T01:36:06.220Z,65.18
2018-12-14T01:38:36.107Z,64.67
2018-12-14T01:41:06.166Z,65.29
2018-12-14T01:43:36.122Z,64.35
2018-12-14T01:46:05.893Z,64.73
2018-12-14T01:48:36.368Z,64.24
2018-12-14T01:51:06.533Z,64.20
2018-12-14T01:53:37.500Z,64.54
2018-12-14T01:56:07.497Z,65.60
2018-12-14T01:58:39.543Z,64.74
2018-12-14T02:01:08.248Z,64.38
2018-12-14T02:03:38.252Z,64.96
2018-12-14T02:06:08.503Z,63.30
2018-12-14T02:08:37.980Z,63.78
2018-12-14T02:11:07.423Z,65.22
2018-12-14T02:13:37.556Z,65.01
2018-12-14T02:16:06.215Z,65.10
2018-12-14T02:18:35.106Z,65.70
2018-12-14T02:21:06.246Z,64.44
2018-12-14T02:23:36.054Z,64.93
2018-12-14T02:26:07.186Z,64.21
2018-12-14T02:28:37.052Z,65.08
2018-12-14T02:31:08.441Z,64.44
2018-12-14T02:33:39.034Z,65.01
2018-12-14T02:36:07.670Z,65.25
2018-12-14T02:38:37.133Z,64.21
2018-12-14T02:41:07.163Z,64.69
2018-12-14T02:43:39.742Z,64.06
2018-12-14T02:46:09.919Z,63.79
2018-12-14T02:48:40.697Z,64.04
2018-12-14T02:51:10.331Z,64.02
2018-12-14T02:53:41.238Z,64.10
2018-12-14T02:56:10.569Z,63.92
2018-12-14T02:58:41.015Z,64.39
2018-12-14T03:01:11.630Z,64.54
2018-12-14T03:03:41.196Z,65.33
2018-12-14T03:06:11.451Z,64.48
2018-12-14T03:08:40.527Z,61.86
2018-12-14T03:11:10.946Z,63.07
2018-12-14T03:13:40.969Z,63.99
2018-12-14T03:16:11.083Z,63.40
2018-12-14T03:18:41.163Z,64.45
2018-12-14T03:21:12.856Z,63.69
2018-12-14T03:23:42.691Z,64.02
2018-12-14T03:26:11.921Z,62.74
2018-12-14T03:28:42.726Z,64.26
2018-12-14T03:31:12.862Z,63.36
2018-12-14T03:33:46.230Z,63.44
2018-12-14T03:36:15.427Z,64.29
2018-12-14T03:38:43.988Z,63.89
2018-12-14T03:41:14.568Z,64.44
2018-12-14T03:43:44.179Z,64.94
2018-12-14T03:46:15.172Z,64.26
2018-12-14T03:48:46.425Z,63.20
2018-12-14T03:51:18.068Z,63.27
2018-12-14T03:53:47.331Z,63.49
2018-12-14T03:56:17.023Z,63.58
2018-12-14T03:58:47.506Z,62.24
2018-12-14T04:01:16.164Z,61.39
2018-12-14T04:03:46.313Z,61.72
2018-12-14T04:06:15.651Z,62.66
2018-12-14T04:08:45.656Z,61.60
2018-12-14T04:11:14.327Z,60.07
2018-12-14T04:13:44.391Z,60.41
2018-12-14T04:16:14.820Z,61.34
2018-12-14T04:18:44.199Z,61.06
2018-12-14T04:21:14.370Z,60.59
2018-12-14T04:23:43.631Z,60.11
2018-12-14T04:26:12.637Z,60.53
2018-12-14T04:28:42.505Z,61.72
2018-12-14T04:31:11.459Z,61.76
2018-12-14T04:33:42.535Z,61.76
2018-12-14T04:36:13.431Z,62.54
2018-12-14T04:38:46.396Z,62.12
2018-12-14T04:41:16.019Z,61.41
2018-12-14T04:43:44.633Z,61.31
2018-12-14T04:46:15.546Z,61.18
2018-12-14T04:48:46.731Z,60.99
2018-12-14T04:51:15.287Z,60.23
2018-12-14T04:53:49.240Z,61.09
2018-12-14T04:56:19.050Z,60.55
2018-12-14T04:58:51.272Z,60.49
2018-12-14T05:01:21.169Z,60.79
2018-12-14T05:03:53.594Z,60.14
2018-12-14T05:06:26.157Z,61.94
2018-12-14T05:08:56.579Z,62.33
2018-12-14T05:11:26.290Z,61.94
2018-12-14T05:13:56.567Z,61.70
2018-12-14T05:16:26.515Z,61.54
2018-12-14T05:18:55.479Z,62.27
2018-12-14T05:21:25.594Z,61.99
2018-12-14T05:23:54.715Z,61.59
2018-12-14T05:26:24.770Z,62.61
2018-12-14T05:28:54.329Z,61.35
2018-12-14T05:31:24.646Z,61.68
2018-12-14T05:33:54.003Z,61.94
2018-12-14T05:36:23.519Z,62.31
2018-12-14T05:38:54.392Z,62.42
2018-12-14T05:41:23.632Z,61.44
2018-12-14T05:43:54.653Z,60.85
2018-12-14T05:46:24.081Z,60.45
2018-12-14T05:48:54.169Z,61.06
2018-12-14T05:51:23.362Z,60.31
2018-12-14T05:53:52.290Z,59.49
2018-12-14T05:56:22.360Z,59.38
2018-12-14T05:58:52.454Z,59.44
2018-12-14T06:01:21.549Z,60.77
2018-12-14T06:03:51.559Z,61.03
2018-12-14T06:06:23.575Z,61.37
2018-12-14T06:08:53.600Z,61.15
2018-12-14T06:11:22.936Z,59.74
2018-12-14T06:13:54.008Z,59.14
2018-12-14T06:16:45.482Z,60.51
2018-12-14T06:20:16.988Z,59.96
2018-12-14T06:22:46.587Z,59.90
2018-12-14T06:25:17.043Z,60.04
2018-12-14T06:27:46.267Z,59.59
2018-12-14T06:30:15.459Z,60.18
2018-12-14T06:32:44.579Z,61.05
2018-12-14T06:35:13.830Z,60.01
2018-12-14T06:37:42.562Z,60.62
2018-12-14T06:40:11.598Z,59.38
2018-12-14T06:42:41.163Z,59.24
2018-12-14T06:45:16.133Z,59.45
2018-12-14T06:47:46.555Z,59.85
2018-12-14T06:50:17.901Z,58.56
2018-12-14T06:53:02.351Z,58.85
2018-12-14T06:55:31.570Z,59.89
2018-12-14T06:58:00.434Z,59.76
2018-12-14T07:00:29.542Z,58.43
2018-12-14T07:02:58.609Z,59.27
2018-12-14T07:05:28.318Z,58.14
2018-12-14T07:07:57.431Z,58.82
2018-12-14T07:10:28.267Z,59.53
2018-12-14T07:12:57.838Z,57.36
2018-12-14T07:15:26.870Z,57.20
2018-12-14T07:17:58.398Z,58.61
2018-12-14T07:20:28.488Z,58.82
2018-12-14T07:22:59.918Z,59.12
2018-12-14T07:25:31.028Z,59.41
2018-12-14T07:28:00.025Z,59.98
2018-12-14T07:30:28.897Z,60.88
2018-12-14T07:33:06.478Z,60.80
2018-12-14T07:35:41.728Z,60.42
2018-12-14T07:38:07.825Z,60.91
2018-12-14T07:40:37.174Z,59.68
2018-12-14T07:43:06.068Z,60.22
2018-12-14T07:45:35.719Z,60.66
2018-12-14T07:48:05.351Z,59.80
2018-12-14T07:50:34.891Z,60.93
2018-12-14T07:53:09.081Z,61.31
2018-12-14T07:58:13.596Z,59.97
2018-12-14T08:00:42.673Z,59.94
2018-12-14T08:03:12.463Z,61.16
2018-12-14T08:05:41.163Z,60.21
2018-12-14T08:08:13.490Z,60.96
2018-12-14T08:10:43.206Z,60.17
2018-12-14T08:13:13.002Z,60.58
2018-12-14T08:15:43.493Z,60.87
2018-12-14T08:18:13.580Z,61.96
2018-12-14T08:20:48.061Z,61.92
2018-12-14T08:23:18.848Z,60.69
2018-12-14T08:25:48.283Z,60.65
2018-12-14T08:28:17.414Z,60.29
2018-12-14T08:30:50.382Z,59.20
2018-12-14T08:33:19.120Z,61.20
2018-12-14T08:35:51.466Z,60.37
2018-12-14T08:38:20.113Z,60.86
2018-12-14T08:40:49.212Z,59.24
2018-12-14T08:43:19.283Z,59.66
2018-12-14T08:45:52.715Z,59.13
2018-12-14T08:48:24.832Z,59.64
2018-12-14T08:51:01.767Z,59.59
2018-12-14T08:53:31.459Z,60.91
2018-12-14T08:56:00.887Z,59.51
2018-12-14T08:58:31.618Z,60.05
2018-12-14T09:01:00.279Z,59.47
2018-12-14T09:03:30.202Z,60.76
2018-12-14T09:05:59.737Z,59.43
2018-12-14T09:08:29.392Z,60.24
2018-12-14T09:10:58.273Z,59.76
2018-12-14T09:13:27.951Z,60.20
2018-12-14T09:15:58.525Z,59.65
2018-12-14T09:18:27.530Z,59.50
2018-12-14T09:21:01.075Z,58.70
2018-12-14T09:23:29.707Z,58.86
2018-12-14T09:26:01.073Z,59.62
2018-12-14T09:28:31.477Z,59.43
2018-12-14T09:31:00.539Z,60.08
2018-12-14T09:33:30.081Z,59.27
2018-12-14T09:35:58.990Z,58.86
2018-12-14T09:38:27.569Z,58.31
2018-12-14T09:40:57.336Z,58.90
2018-12-14T09:43:28.935Z,58.14
2018-12-14T09:45:57.857Z,58.74
2018-12-14T09:48:31.805Z,58.09
2018-12-14T09:51:00.472Z,58.73
2018-12-14T09:53:32.850Z,57.84
2018-12-14T09:56:03.426Z,57.52
2018-12-14T09:58:33.497Z,58.14
2018-12-14T10:01:04.864Z,57.65
2018-12-14T10:05:40.655Z,57.72
2018-12-14T10:08:11.845Z,57.44
2018-12-14T10:10:43.938Z,57.00
2018-12-14T10:13:49.839Z,55.74
2018-12-14T10:16:20.230Z,57.50
2018-12-14T10:18:50.008Z,57.90
2018-12-14T10:21:19.759Z,58.26
2018-12-14T10:23:50.635Z,58.72
2018-12-14T10:26:23.094Z,57.52
2018-12-14T10:28:51.923Z,57.65
2018-12-14T10:31:22.584Z,56.99
2018-12-14T10:33:52.433Z,59.40
2018-12-14T10:36:21.039Z,57.88
2018-12-14T10:38:50.238Z,57.26
2018-12-14T10:41:19.674Z,57.89
2018-12-14T10:43:49.137Z,57.10
2018-12-14T10:46:17.941Z,56.91
2018-12-14T10:49:03.055Z,56.36
2018-12-14T10:51:33.794Z,55.34
2018-12-14T10:54:04.436Z,55.04
2018-12-14T10:56:33.616Z,55.14
2018-12-14T10:59:03.198Z,56.23
2018-12-14T11:01:43.115Z,54.92
2018-12-14T11:04:14.156Z,56.49
2018-12-14T11:06:44.813Z,56.93
2018-12-14T11:09:15.521Z,56.02
2018-12-14T11:11:45.343Z,55.30
2018-12-14T11:14:14.975Z,54.73
2018-12-14T11:16:44.006Z,54.73
2018-12-14T11:19:12.832Z,56.85
2018-12-14T11:21:43.268Z,56.65
2018-12-14T11:24:12.230Z,56.89
2018-12-14T11:26:44.403Z,57.35
2018-12-14T11:29:16.333Z,56.59
2018-12-14T11:31:45.811Z,58.04
2018-12-14T11:34:17.907Z,57.78
2018-12-14T11:36:47.208Z,57.06
2018-12-14T11:39:18.300Z,57.47
2018-12-14T11:41:48.157Z,57.42
2018-12-14T11:44:20.697Z,57.57
2018-12-14T11:46:49.007Z,57.96
2018-12-14T11:49:22.087Z,59.12
2018-12-14T11:51:50.880Z,59.21
2018-12-14T11:54:19.922Z,59.45
2018-12-14T11:56:49.733Z,58.33
2018-12-14T11:59:20.937Z,58.08
2018-12-14T12:01:51.176Z,58.56
2018-12-14T12:04:21.944Z,58.52
2018-12-14T12:06:51.524Z,58.24
2018-12-14T12:09:21.076Z,58.91
2018-12-14T12:11:54.725Z,57.37
2018-12-14T12:14:27.148Z,56.84
2018-12-14T12:16:59.267Z,57.62
2018-12-14T12:19:28.447Z,58.19
2018-12-14T12:21:57.293Z,57.43
2018-12-14T12:24:26.666Z,57.35
2018-12-14T12:26:55.184Z,57.70
2018-12-14T12:29:24.777Z,58.62
2018-12-14T12:31:53.605Z,57.54
2018-12-14T12:34:23.639Z,57.46
2018-12-14T12:36:52.896Z,56.02
2018-12-14T12:39:22.814Z,55.98
2018-12-14T12:41:52.667Z,55.70
2018-12-14T12:44:22.234Z,57.78
2018-12-14T12:46:50.750Z,57.74
2018-12-14T12:49:23.827Z,57.37
2018-12-14T12:51:53.868Z,57.37
2018-12-14T12:54:22.434Z,57.42
2018-12-14T12:56:51.504Z,55.86
2018-12-14T12:59:20.132Z,56.27
2018-12-14T13:01:51.286Z,57.05
2018-12-14T13:04:21.045Z,56.53
2018-12-14T13:06:50.795Z,54.56
2018-12-14T13:09:20.847Z,56.75
2018-12-14T13:12:52.425Z,56.16
2018-12-14T13:15:23.305Z,56.70
2018-12-14T13:17:54.678Z,56.82
2018-12-14T13:20:24.067Z,55.86
2018-12-14T13:22:52.881Z,56.14
2018-12-14T13:25:29.212Z,55.72
2018-12-14T13:27:58.275Z,57.75
2018-12-14T13:30:27.845Z,57.47
2018-12-14T13:32:57.957Z,58.27
2018-12-14T13:35:28.198Z,56.76
2018-12-14T13:37:57.624Z,56.96
2018-12-14T13:40:27.127Z,56.71
2018-12-14T13:42:57.249Z,57.13
2018-12-14T13:45:27.182Z,57.48
2018-12-14T13:47:56.727Z,57.61
2018-12-14T13:50:25.743Z,57.74
2018-12-14T13:52:54.536Z,57.86
2018-12-14T13:55:24.577Z,57.78
2018-12-14T13:57:56.092Z,58.29
2018-12-14T14:00:25.306Z,57.97
2018-12-14T14:02:55.460Z,57.95
2018-12-14T14:05:24.854Z,59.40
2018-12-14T14:07:55.636Z,58.33
2018-12-14T14:10:25.534Z,56.79
2018-12-14T14:12:56.226Z,56.86
2018-12-14T14:15:24.835Z,56.80
2018-12-14T14:17:56.205Z,56.10
2018-12-14T14:20:25.910Z,56.26
2018-12-14T14:22:57.175Z,56.75
2018-12-14T14:25:28.033Z,56.84
2018-12-14T14:27:58.882Z,56.03
2018-12-14T14:30:28.935Z,56.25
2018-12-14T14:32:58.812Z,55.89
2018-12-14T14:35:28.971Z,56.69
2018-12-14T14:37:58.031Z,54.43
2018-12-14T14:40:27.711Z,54.73
2018-12-14T14:42:58.431Z,55.50
2018-12-14T14:45:27.964Z,55.41
2018-12-14T14:47:57.186Z,55.80
2018-12-14T14:50:26.266Z,54.90
2018-12-14T14:52:55.307Z,54.97
2018-12-14T14:55:23.886Z,55.04
2018-12-14T14:57:52.941Z,55.61
2018-12-14T15:00:22.511Z,56.45
2018-12-14T15:02:52.690Z,57.21
2018-12-14T15:05:23.190Z,56.56
2018-12-14T15:07:52.394Z,56.06
2018-12-14T15:10:21.415Z,55.71
2018-12-14T15:12:50.775Z,54.84
2018-12-14T15:15:20.858Z,55.32
2018-12-14T15:17:50.637Z,56.23
2018-12-14T15:20:21.111Z,56.21
2018-12-14T15:22:53.684Z,55.96
2018-12-14T15:25:23.535Z,54.77
2018-12-14T15:27:53.161Z,56.92
2018-12-14T15:30:22.186Z,54.15
2018-12-14T15:32:51.367Z,55.07
2018-12-14T15:35:20.698Z,54.85
2018-12-14T15:37:51.363Z,54.30
2018-12-14T15:40:19.909Z,55.45
2018-12-14T15:42:49.960Z,55.37
2018-12-14T15:45:19.696Z,55.36
2018-12-14T15:47:52.858Z,55.78
2018-12-14T15:50:22.444Z,55.52
2018-12-14T15:52:52.390Z,56.85
2018-12-14T15:55:22.944Z,55.65
2018-12-14T15:57:57.096Z,55.92
2018-12-14T16:00:26.630Z,55.76
2018-12-14T16:02:56.682Z,56.36
2018-12-14T16:05:27.174Z,56.33
2018-12-14T16:07:57.374Z,55.77
2018-12-14T16:10:27.191Z,56.01
2018-12-14T16:12:56.030Z,55.67
2018-12-14T16:15:26.945Z,57.03
2018-12-14T16:17:57.340Z,57.93
2018-12-14T16:20:26.039Z,56.90
2018-12-14T16:22:54.882Z,56.82
2018-12-14T16:25:23.788Z,56.87
2018-12-14T16:27:53.182Z,57.33
2018-12-14T16:30:23.417Z,56.21
2018-12-14T16:32:54.110Z,55.79
2018-12-14T16:35:22.925Z,57.51
2018-12-14T16:37:51.880Z,56.98
2018-12-14T16:40:20.975Z,57.03
2018-12-14T16:42:50.112Z,55.49
2018-12-14T16:45:26.173Z,56.04
2018-12-14T16:47:54.491Z,55.28
2018-12-14T16:50:24.838Z,55.73
2018-12-14T16:52:54.857Z,55.10
2018-12-14T16:55:24.627Z,54.58
2018-12-14T16:57:55.455Z,55.58
2018-12-14T17:00:26.449Z,55.58
2018-12-14T17:02:55.103Z,53.79
2018-12-14T17:05:24.006Z,55.88
2018-12-14T17:07:53.040Z,54.41
2018-12-14T17:10:22.640Z,55.29
2018-12-14T17:12:52.706Z,54.42
2018-12-14T17:15:22.993Z,54.93
2018-12-14T17:17:52.319Z,55.28
2018-12-14T17:20:22.313Z,55.09
2018-12-14T17:22:51.642Z,55.43
2018-12-14T17:25:20.716Z,56.19
2018-12-14T17:27:50.002Z,54.84
2018-12-14T17:30:19.692Z,55.43
2018-12-14T17:32:49.283Z,56.47
2018-12-14T17:35:20.040Z,56.05
2018-12-14T17:37:49.013Z,56.00
2018-12-14T17:40:20.047Z,54.46
2018-12-14T17:42:49.069Z,55.65
2018-12-14T17:45:18.578Z,56.40
2018-12-14T17:47:48.511Z,56.25
2018-12-14T17:50:19.012Z,56.37
2018-12-14T17:52:49.347Z,56.72
2018-12-14T17:55:19.462Z,55.23
2018-12-14T17:57:51.011Z,55.75
2018-12-14T18:00:20.885Z,56.21
2018-12-14T18:02:53.512Z,55.29
2018-12-14T18:05:24.032Z,55.28
2018-12-14T18:07:54.614Z,55.82
2018-12-14T18:10:25.634Z,54.91
2018-12-14T18:12:54.811Z,55.36
2018-12-14T18:15:24.694Z,54.99
2018-12-14T18:17:58.014Z,56.13
2018-12-14T18:20:27.778Z,55.67
2018-12-14T18:22:56.693Z,56.22
2018-12-14T18:25:27.230Z,57.07
2018-12-14T18:27:58.136Z,56.46
2018-12-14T18:30:29.209Z,56.14
2018-12-14T18:33:02.073Z,55.26
2018-12-14T18:35:31.678Z,54.60
2018-12-14T18:38:02.478Z,53.26
2018-12-14T18:40:31.714Z,55.61
2018-12-14T18:43:01.595Z,55.53
2018-12-14T18:45:30.939Z,57.02
2018-12-14T18:47:59.554Z,57.20
2018-12-14T18:50:29.541Z,55.98
2018-12-14T18:53:00.643Z,55.87
2018-12-14T18:55:30.250Z,55.80
2018-12-14T18:58:00.214Z,54.35
2018-12-14T19:00:28.706Z,54.96
2018-12-14T19:02:58.017Z,54.52
2018-12-14T19:05:28.214Z,54.85
2018-12-14T19:07:57.646Z,56.50
2018-12-14T19:10:27.517Z,55.58
2018-12-14T19:12:56.914Z,55.21
2018-12-14T19:15:28.749Z,54.92
2018-12-14T19:17:58.258Z,54.65
2018-12-14T19:20:29.428Z,54.25
2018-12-14T19:22:59.511Z,54.15
2018-12-14T19:25:31.130Z,53.85
2018-12-14T19:27:59.703Z,55.19
2018-12-14T19:30:30.762Z,54.50
2018-12-14T19:33:00.137Z,55.74
2018-12-14T19:35:30.591Z,55.10
2018-12-14T19:38:00.730Z,56.44
2018-12-14T19:40:29.618Z,55.46
2018-12-14T19:42:59.238Z,55.86
2018-12-14T19:45:27.937Z,56.63
2018-12-14T19:47:59.971Z,55.24
2018-12-14T19:50:29.498Z,53.80
2018-12-14T19:52:58.025Z,55.01
2018-12-14T19:55:30.845Z,52.96
2018-12-14T19:58:01.815Z,56.12
2018-12-14T20:00:32.415Z,54.31
2018-12-14T20:03:01.547Z,55.82
2018-12-14T20:05:33.519Z,54.76
2018-12-14T20:08:03.142Z,53.91
2018-12-14T20:10:33.792Z,53.25
2018-12-14T20:13:03.769Z,54.31
2018-12-14T20:15:33.383Z,56.59
2018-12-14T20:18:02.621Z,52.61
2018-12-14T20:20:32.087Z,52.32
2018-12-14T20:23:02.768Z,53.87
2018-12-14T20:25:33.832Z,56.14
2018-12-14T20:28:03.505Z,54.03
2018-12-14T20:30:32.061Z,53.27
2018-12-14T20:33:00.614Z,54.71
2018-12-14T20:35:31.063Z,54.76
2018-12-14T20:38:00.101Z,54.71
2018-12-14T20:40:30.190Z,55.48
2018-12-14T20:43:00.783Z,55.48
2018-12-14T20:45:29.563Z,56.08
2018-12-14T20:47:59.605Z,53.54
2018-12-14T20:50:32.317Z,54.86
2018-12-14T20:53:01.170Z,57.12
2018-12-14T20:55:30.567Z,55.25
2018-12-14T20:58:00.171Z,53.16
2018-12-14T21:00:30.192Z,52.32
2018-12-14T21:02:59.283Z,52.47
2018-12-14T21:05:27.790Z,52.76
2018-12-14T21:07:58.825Z,53.78
2018-12-14T21:10:28.504Z,54.22
2018-12-14T21:12:57.593Z,55.15
2018-12-14T21:15:27.063Z,55.65
2018-12-14T21:17:56.304Z,55.49
2018-12-14T21:20:27.068Z,56.16
2018-12-14T21:22:56.391Z,55.25
2018-12-14T21:25:25.549Z,54.59
2018-12-14T21:27:55.286Z,53.39
2018-12-14T21:30:25.005Z,53.19
2018-12-14T21:32:55.658Z,54.78
2018-12-14T21:35:26.071Z,53.43
2018-12-14T21:37:55.461Z,54.23
2018-12-14T21:40:24.293Z,55.03
2018-12-14T21:42:55.954Z,54.40
2018-12-14T21:45:26.966Z,55.10
2018-12-14T21:47:58.898Z,56.83
2018-12-14T21:50:28.927Z,55.97
2018-12-14T21:52:58.237Z,56.33
2018-12-14T21:55:28.976Z,54.23
2018-12-14T21:57:58.830Z,55.07
2018-12-14T22:00:31.027Z,56.03
2018-12-14T22:03:00.643Z,55.45
2018-12-14T22:05:29.292Z,55.25
2018-12-14T22:08:01.830Z,54.79
2018-12-14T22:10:30.932Z,53.90
2018-12-14T22:13:00.290Z,54.22
2018-12-14T22:15:29.443Z,55.49
2018-12-14T22:17:59.702Z,54.50
2018-12-14T22:20:29.538Z,53.68
2018-12-14T22:22:59.737Z,53.85
2018-12-14T22:25:29.256Z,55.04
2018-12-14T22:27:57.753Z,55.48
2018-12-14T22:30:28.439Z,53.96
2018-12-14T22:32:57.383Z,54.81
2018-12-14T22:35:29.531Z,55.30
2018-12-14T22:37:59.376Z,52.86
2018-12-14T22:40:29.711Z,52.07
2018-12-14T22:42:59.790Z,52.30
2018-12-14T22:45:29.444Z,52.63
2018-12-14T22:47:59.906Z,54.85
2018-12-14T22:50:29.581Z,56.19
2018-12-14T22:52:58.919Z,55.10
2018-12-14T22:55:28.817Z,54.44
2018-12-14T22:57:57.716Z,52.81
2018-12-14T23:00:28.337Z,52.30
2018-12-14T23:02:56.865Z,53.21
2018-12-14T23:05:26.830Z,52.02
2018-12-14T23:07:55.946Z,52.38
2018-12-14T23:10:26.089Z,52.67
2018-12-14T23:12:56.862Z,52.31
2018-12-14T23:15:26.731Z,54.03
2018-12-14T23:18:02.652Z,56.14
2018-12-14T23:20:31.805Z,53.66
2018-12-14T23:23:00.506Z,56.70
2018-12-14T23:25:29.422Z,56.11
2018-12-14T23:28:08.194Z,55.13
2018-12-14T23:30:39.402Z,55.21
2018-12-14T23:33:08.883Z,53.83
2018-12-14T23:35:37.747Z,55.75
2018-12-14T23:38:08.075Z,54.75
2018-12-14T23:40:38.319Z,52.38
2018-12-14T23:43:07.234Z,53.12
2018-12-14T23:45:42.081Z,54.62
2018-12-14T23:48:11.022Z,54.79
2018-12-14T23:50:40.657Z,55.60
2018-12-14T23:53:09.822Z,54.45
2018-12-14T23:55:39.134Z,54.22
2018-12-14T23:58:08.572Z,53.60
